createdAt,value
2022-12-15T00:00:30.038Z,10.25
2022-12-15T00:03:16.069Z,10.82
2022-12-15T00:06:02.320Z,10.43
2022-12-15T00:08:49.425Z,10.40
2022-12-15T00:11:35.679Z,10.55
2022-12-15T00:14:21.968Z,11.95
2022-12-15T00:17:08.328Z,11.82
2022-12-15T00:19:54.289Z,11.48
2022-12-15T00:22:42.985Z,11.02
2022-12-15T00:25:30.535Z,11.02
2022-12-15T00:28:16.660Z,11.63
2022-12-15T00:31:02.927Z,11.77
2022-12-15T00:33:48.701Z,11.68
2022-12-15T00:36:34.481Z,10.63
2022-12-15T00:39:04.156Z,11.77
2022-12-15T00:41:36.278Z,11.18
2022-12-15T00:44:05.119Z,10.85
2022-12-15T00:46:51.170Z,11.40
2022-12-15T00:49:48.197Z,10.48
2022-12-15T00:52:36.424Z,11.45
2022-12-15T00:55:29.772Z,11.68
2022-12-15T00:58:17.319Z,11.65
2022-12-15T01:01:03.246Z,11.82
2022-12-15T01:03:53.505Z,10.80
2022-12-15T01:06:39.993Z,11.82
2022-12-15T01:09:31.353Z,10.98
2022-12-15T01:12:17.473Z,11.93
2022-12-15T01:15:04.845Z,10.85
2022-12-15T01:17:50.980Z,12.07
2022-12-15T01:20:19.595Z,11.90
2022-12-15T01:22:48.601Z,10.93
2022-12-15T01:25:18.862Z,11.23
2022-12-15T01:27:47.566Z,11.77
2022-12-15T01:30:22.601Z,11.80
2022-12-15T01:32:51.949Z,12.65
2022-12-15T01:35:25.938Z,10.68
2022-12-15T01:37:54.934Z,11.75
2022-12-15T01:40:41.150Z,11.38
2022-12-15T01:43:14.446Z,11.02
2022-12-15T01:45:54.503Z,11.38
2022-12-15T01:48:38.116Z,11.55
2022-12-15T01:51:18.496Z,11.55
2022-12-15T01:53:53.646Z,11.02
2022-12-15T01:56:24.763Z,12.43
2022-12-15T01:58:57.787Z,11.00
2022-12-15T02:01:28.099Z,12.38
2022-12-15T02:03:57.828Z,12.10
2022-12-15T02:06:27.608Z,11.95
2022-12-15T02:08:58.234Z,12.15
2022-12-15T02:11:58.595Z,12.30
2022-12-15T02:14:56.941Z,11.43
2022-12-15T02:17:35.192Z,11.40
2022-12-15T02:20:42.078Z,11.60
2022-12-15T02:23:45.949Z,11.63
2022-12-15T02:26:54.721Z,11.70
2022-12-15T02:29:40.422Z,11.95
2022-12-15T02:32:13.583Z,11.93
2022-12-15T02:34:47.504Z,12.40
2022-12-15T02:37:20.303Z,12.50
2022-12-15T02:39:48.677Z,12.32
2022-12-15T02:42:17.934Z,12.30
2022-12-15T02:44:50.484Z,13.27
2022-12-15T02:47:28.773Z,12.32
2022-12-15T02:50:12.534Z,12.90
2022-12-15T02:52:52.770Z,13.25
2022-12-15T02:55:29.844Z,12.90
2022-12-15T02:58:05.847Z,12.65
2022-12-15T03:00:38.721Z,12.75
2022-12-15T03:03:09.828Z,12.95
2022-12-15T03:05:38.952Z,12.73
2022-12-15T03:08:09.257Z,13.02
2022-12-15T03:10:37.637Z,12.48
2022-12-15T03:13:06.064Z,12.07
2022-12-15T03:15:35.801Z,12.73
2022-12-15T03:18:04.384Z,11.40
2022-12-15T03:20:34.155Z,13.40
2022-12-15T03:23:02.956Z,13.20
2022-12-15T03:25:31.561Z,13.38
2022-12-15T03:28:00.131Z,12.68
2022-12-15T03:30:28.575Z,12.30
2022-12-15T03:32:56.949Z,13.02
2022-12-15T03:35:25.411Z,12.75
2022-12-15T03:37:55.111Z,12.43
2022-12-15T03:40:23.669Z,14.00
2022-12-15T03:42:52.769Z,12.68
2022-12-15T03:45:23.525Z,13.65
2022-12-15T03:47:52.889Z,14.00
2022-12-15T03:50:23.500Z,12.57
2022-12-15T03:52:53.275Z,13.48
2022-12-15T03:55:24.275Z,12.60
2022-12-15T03:57:53.194Z,12.88
2022-12-15T04:00:22.741Z,12.98
2022-12-15T04:02:52.749Z,13.05
2022-12-15T04:05:28.824Z,13.15
2022-12-15T04:08:01.905Z,12.57
2022-12-15T04:10:34.942Z,12.70
2022-12-15T04:13:05.588Z,13.75
2022-12-15T04:15:34.327Z,13.50
2022-12-15T04:18:03.330Z,13.57
2022-12-15T04:20:33.025Z,13.25
2022-12-15T04:23:01.760Z,12.63
2022-12-15T04:25:48.887Z,12.38
2022-12-15T04:28:34.577Z,13.18
2022-12-15T04:31:25.148Z,13.13
2022-12-15T04:34:13.427Z,13.07
2022-12-15T04:37:03.667Z,12.73
2022-12-15T04:39:49.846Z,13.38
2022-12-15T04:42:37.937Z,13.52
2022-12-15T04:45:26.319Z,14.43
2022-12-15T04:48:11.912Z,13.45
2022-12-15T04:50:57.740Z,11.07
2022-12-15T04:53:43.838Z,12.90
2022-12-15T04:56:30.979Z,12.95
2022-12-15T04:59:19.088Z,12.25
2022-12-15T05:02:05.179Z,15.40
2022-12-15T05:04:51.606Z,13.15
2022-12-15T05:07:37.290Z,11.45
2022-12-15T05:10:24.850Z,11.52
2022-12-15T05:13:10.736Z,11.52
2022-12-15T05:15:58.528Z,9.98
2022-12-15T05:18:44.317Z,12.13
2022-12-15T05:21:30.203Z,11.05
2022-12-15T05:24:15.881Z,12.40
2022-12-15T05:27:01.524Z,11.57
2022-12-15T05:29:47.141Z,11.77
2022-12-15T05:32:17.088Z,10.55
2022-12-15T05:34:45.470Z,12.10
2022-12-15T05:37:13.834Z,12.20
2022-12-15T05:39:42.327Z,12.35
2022-12-15T05:42:10.668Z,12.20
2022-12-15T05:44:39.014Z,12.23
2022-12-15T05:47:08.256Z,12.38
2022-12-15T05:49:37.990Z,13.50
2022-12-15T05:52:07.645Z,14.32
2022-12-15T05:54:36.022Z,15.15
2022-12-15T05:57:04.459Z,14.70
2022-12-15T05:59:32.809Z,13.43
2022-12-15T06:02:04.843Z,12.25
2022-12-15T06:04:47.744Z,12.45
2022-12-15T06:07:22.671Z,12.18
2022-12-15T06:10:09.223Z,11.13
2022-12-15T06:12:41.211Z,10.57
2022-12-15T06:15:16.744Z,12.05
2022-12-15T06:17:55.888Z,11.30
2022-12-15T06:20:33.476Z,11.60
2022-12-15T06:23:08.231Z,12.85
2022-12-15T06:25:37.703Z,11.85
2022-12-15T06:28:09.729Z,12.43
2022-12-15T06:30:38.684Z,13.60
2022-12-15T06:33:07.393Z,17.92
2022-12-15T06:35:38.679Z,17.20
2022-12-15T06:38:06.987Z,18.10
2022-12-15T06:40:38.274Z,16.58
2022-12-15T06:43:07.042Z,14.90
2022-12-15T06:45:35.369Z,15.65
2022-12-15T06:48:03.885Z,15.93
2022-12-15T06:50:32.253Z,16.70
2022-12-15T06:53:02.002Z,14.77
2022-12-15T06:55:30.281Z,16.15
2022-12-15T06:57:58.722Z,16.83
2022-12-15T07:00:27.920Z,16.35
2022-12-15T07:02:56.493Z,16.52
2022-12-15T07:05:24.887Z,15.57
2022-12-15T07:07:53.973Z,16.23
2022-12-15T07:10:23.642Z,15.02
2022-12-15T07:12:51.999Z,15.77
2022-12-15T07:15:20.341Z,15.00
2022-12-15T07:17:48.854Z,13.95
2022-12-15T07:20:17.372Z,16.02
2022-12-15T07:22:45.723Z,17.15
2022-12-15T07:25:14.510Z,17.10
2022-12-15T07:27:44.233Z,17.05
2022-12-15T07:30:13.797Z,17.08
2022-12-15T07:32:42.518Z,17.88
2022-12-15T07:35:11.274Z,17.83
2022-12-15T07:37:40.293Z,16.88
2022-12-15T07:40:10.021Z,18.05
2022-12-15T07:42:38.482Z,18.13
2022-12-15T07:45:09.375Z,19.40
2022-12-15T07:47:37.768Z,18.42
2022-12-15T07:50:06.767Z,19.38
2022-12-15T07:52:35.383Z,18.13
2022-12-15T07:55:03.730Z,19.25
2022-12-15T07:57:32.878Z,19.77
2022-12-15T08:00:01.251Z,16.98
2022-12-15T08:02:43.264Z,16.58
2022-12-15T08:05:12.146Z,16.50
2022-12-15T08:07:40.734Z,17.38
2022-12-15T08:10:09.882Z,16.55
2022-12-15T08:12:38.224Z,18.58
2022-12-15T08:15:07.542Z,16.65
2022-12-15T08:17:35.930Z,17.83
2022-12-15T08:20:10.131Z,16.85
2022-12-15T08:22:38.712Z,19.23
2022-12-15T08:25:07.310Z,17.33
2022-12-15T08:27:35.900Z,15.88
2022-12-15T08:30:04.636Z,18.55
2022-12-15T08:32:33.021Z,17.45
2022-12-15T08:35:01.371Z,24.60
2022-12-15T08:37:31.099Z,23.08
2022-12-15T08:39:59.463Z,22.13
2022-12-15T08:42:27.805Z,21.05
2022-12-15T08:44:56.161Z,19.27
2022-12-15T08:47:24.461Z,19.55
2022-12-15T08:49:54.069Z,19.80
2022-12-15T08:52:23.352Z,19.75
2022-12-15T08:55:01.177Z,20.27
2022-12-15T08:57:31.868Z,19.92
2022-12-15T09:00:05.364Z,19.52
2022-12-15T09:02:34.323Z,18.75
2022-12-15T09:05:02.761Z,18.35
2022-12-15T09:07:31.218Z,18.17
2022-12-15T09:10:00.945Z,18.75
2022-12-15T09:12:29.410Z,19.38
2022-12-15T09:14:57.724Z,17.75
2022-12-15T09:17:26.126Z,18.50
2022-12-15T09:19:54.554Z,20.25
2022-12-15T09:22:22.904Z,20.55
2022-12-15T09:24:51.519Z,19.05
2022-12-15T09:27:24.503Z,21.10
2022-12-15T09:29:52.865Z,20.40
2022-12-15T09:32:21.145Z,20.08
2022-12-15T09:34:49.515Z,18.63
2022-12-15T09:37:19.457Z,18.65
2022-12-15T09:39:48.929Z,19.42
2022-12-15T09:42:27.190Z,19.75
2022-12-15T09:45:02.740Z,19.05
2022-12-15T09:47:40.642Z,19.48
2022-12-15T09:50:13.608Z,19.35
2022-12-15T09:52:48.613Z,20.65
2022-12-15T09:55:22.955Z,17.75
2022-12-15T09:57:55.215Z,24.73
2022-12-15T10:00:25.754Z,19.85
2022-12-15T10:03:39.726Z,20.42
2022-12-15T10:06:17.138Z,20.38
2022-12-15T10:08:50.923Z,19.90
2022-12-15T10:11:30.458Z,19.23
2022-12-15T10:14:08.502Z,19.42
2022-12-15T10:16:50.893Z,19.23
2022-12-15T10:19:25.260Z,19.67
2022-12-15T10:21:53.766Z,18.85
2022-12-15T10:25:00.180Z,17.67
2022-12-15T10:27:30.314Z,17.92
2022-12-15T10:30:02.963Z,18.77
2022-12-15T10:32:50.835Z,19.73
2022-12-15T10:35:35.571Z,19.00
2022-12-15T10:38:07.116Z,18.25
2022-12-15T10:40:50.251Z,16.38
2022-12-15T10:43:28.144Z,17.40
2022-12-15T10:46:08.618Z,18.08
2022-12-15T10:48:37.271Z,17.20
2022-12-15T10:51:20.187Z,17.88
2022-12-15T10:53:50.920Z,18.35
2022-12-15T10:56:28.864Z,20.45
2022-12-15T10:59:03.631Z,17.00
2022-12-15T11:01:35.684Z,17.17
2022-12-15T11:04:04.363Z,17.77
2022-12-15T11:06:34.455Z,17.52
2022-12-15T11:09:28.323Z,18.55
2022-12-15T11:12:14.148Z,19.23
2022-12-15T11:14:47.849Z,19.42
2022-12-15T11:17:19.617Z,17.55
2022-12-15T11:20:00.000Z,18.70
2022-12-15T11:22:40.685Z,18.67
2022-12-15T11:25:25.787Z,19.35
2022-12-15T11:27:58.405Z,19.00
2022-12-15T11:30:32.437Z,19.88
2022-12-15T11:33:03.275Z,20.33
2022-12-15T11:35:54.238Z,18.90
2022-12-15T11:38:29.882Z,18.30
2022-12-15T11:41:01.362Z,17.52
2022-12-15T11:43:50.547Z,17.60
2022-12-15T11:46:24.346Z,18.67
2022-12-15T11:49:09.240Z,19.23
2022-12-15T11:51:43.716Z,19.83
2022-12-15T11:54:20.289Z,20.42
2022-12-15T11:56:54.028Z,20.20
2022-12-15T11:59:43.308Z,20.98
2022-12-15T12:02:38.065Z,21.33
2022-12-15T12:05:27.798Z,19.63
2022-12-15T12:08:07.161Z,20.67
2022-12-15T12:10:44.585Z,19.45
2022-12-15T12:13:23.989Z,19.63
2022-12-15T12:15:58.698Z,21.67
2022-12-15T12:18:30.040Z,21.02
2022-12-15T12:21:05.702Z,21.45
2022-12-15T12:23:40.399Z,21.35
2022-12-15T12:26:15.631Z,20.10
2022-12-15T12:28:48.712Z,19.38
2022-12-15T12:31:27.543Z,19.65
2022-12-15T12:33:59.908Z,19.65
2022-12-15T12:36:29.629Z,19.75
2022-12-15T12:38:59.495Z,19.30
2022-12-15T12:41:36.923Z,20.25
2022-12-15T12:44:14.154Z,19.45
2022-12-15T12:46:46.899Z,16.88
2022-12-15T12:52:23.280Z,16.70
2022-12-15T12:55:00.755Z,16.05
2022-12-15T12:57:39.443Z,17.05
2022-12-15T13:00:23.177Z,17.10
2022-12-15T13:03:20.864Z,16.83
2022-12-15T13:05:51.688Z,17.63
2022-12-15T13:08:51.297Z,16.92
2022-12-15T13:12:14.891Z,16.05
2022-12-15T13:14:51.989Z,16.70
2022-12-15T13:17:31.550Z,17.35
2022-12-15T13:20:25.966Z,18.60
2022-12-15T13:31:42.388Z,16.50
2022-12-15T13:34:18.981Z,20.20
2022-12-15T13:36:55.498Z,17.88
2022-12-15T13:39:52.498Z,16.48
2022-12-15T13:42:41.564Z,16.83
2022-12-15T13:45:45.304Z,17.88
2022-12-15T13:48:45.855Z,17.20
2022-12-15T13:51:31.607Z,19.65
2022-12-15T13:54:04.306Z,19.50
2022-12-15T13:56:47.083Z,19.27
2022-12-15T13:59:32.723Z,18.83
2022-12-15T14:02:01.528Z,20.08
2022-12-15T14:04:31.112Z,19.75
2022-12-15T14:07:03.109Z,20.27
2022-12-15T14:09:34.856Z,20.38
2022-12-15T14:12:04.718Z,19.63
2022-12-15T14:14:36.119Z,19.40
2022-12-15T14:17:09.776Z,19.58
2022-12-15T14:19:40.680Z,20.10
2022-12-15T14:22:29.357Z,20.02
2022-12-15T14:25:03.475Z,19.40
2022-12-15T14:27:34.043Z,18.77
2022-12-15T14:30:25.513Z,21.23
2022-12-15T14:32:59.427Z,19.38
2022-12-15T14:35:32.435Z,19.80
2022-12-15T14:38:06.567Z,18.88
2022-12-15T14:40:37.420Z,19.90
2022-12-15T14:43:07.939Z,20.27
2022-12-15T14:45:36.343Z,20.02
2022-12-15T14:51:01.131Z,19.17
2022-12-15T14:53:36.631Z,20.15
2022-12-15T14:56:30.080Z,19.83
2022-12-15T14:59:03.840Z,18.00
2022-12-15T15:01:41.468Z,18.10
2022-12-15T15:03:12.902Z,17.02
2022-12-15T15:04:26.343Z,18.67
2022-12-15T15:06:56.984Z,18.35
2022-12-15T15:09:29.997Z,19.08
2022-12-15T15:15:43.826Z,18.85
2022-12-15T15:18:29.029Z,18.25
2022-12-15T15:22:03.539Z,18.42
2022-12-15T15:24:44.266Z,19.77
2022-12-15T15:28:08.978Z,18.95
2022-12-15T15:31:40.471Z,19.52
2022-12-15T15:34:44.573Z,19.65
2022-12-15T15:37:46.289Z,18.48
2022-12-15T15:44:07.034Z,20.02
2022-12-15T15:46:52.485Z,19.65
2022-12-15T15:49:37.907Z,19.20
2022-12-15T15:52:38.980Z,18.48
2022-12-15T15:55:45.918Z,18.17
2022-12-15T15:58:40.332Z,16.90
2022-12-15T16:01:15.866Z,18.83
2022-12-15T16:04:19.445Z,16.58
2022-12-15T16:06:54.540Z,16.25
2022-12-15T16:09:27.678Z,17.98
2022-12-15T16:12:00.461Z,16.38
2022-12-15T16:14:30.710Z,18.20
2022-12-15T16:17:00.921Z,16.42
2022-12-15T16:19:36.389Z,14.57
2022-12-15T16:22:26.769Z,15.25
2022-12-15T17:55:40.432Z,13.25
2022-12-15T17:58:19.033Z,13.10
2022-12-15T18:00:51.857Z,11.93
2022-12-15T18:03:27.671Z,12.43
2022-12-15T18:06:32.640Z,12.60
2022-12-15T18:09:13.727Z,12.20
2022-12-15T18:11:50.640Z,12.48
2022-12-15T18:14:24.110Z,12.30
2022-12-15T18:16:53.708Z,13.80
2022-12-15T18:19:34.779Z,13.25
2022-12-15T18:22:06.339Z,13.25
2022-12-15T18:24:49.533Z,13.43
2022-12-15T18:27:26.183Z,11.77
2022-12-15T18:30:03.603Z,12.80
2022-12-15T18:32:47.277Z,12.98
2022-12-15T18:35:20.724Z,11.68
2022-12-15T18:37:54.247Z,14.20
2022-12-15T18:40:30.022Z,12.55
2022-12-15T18:43:08.524Z,11.70
2022-12-15T18:45:37.621Z,11.77
2022-12-15T18:48:19.513Z,13.20
2022-12-15T18:50:53.108Z,12.50
2022-12-15T18:53:33.846Z,11.77
2022-12-15T18:56:07.763Z,11.60
2022-12-15T18:58:45.694Z,11.32
2022-12-15T19:01:15.759Z,12.70
2022-12-15T19:03:48.535Z,12.68
2022-12-15T19:06:38.871Z,12.15
2022-12-15T19:09:20.245Z,12.30
2022-12-15T19:12:09.265Z,12.93
2022-12-15T19:14:45.466Z,13.15
2022-12-15T19:17:37.871Z,12.93
2022-12-15T19:20:38.732Z,12.70
2022-12-15T19:23:32.098Z,13.13
2022-12-15T19:26:05.729Z,12.63
2022-12-15T19:28:39.348Z,12.27
2022-12-15T19:31:25.346Z,13.05
2022-12-15T19:34:10.168Z,13.13
2022-12-15T19:36:51.958Z,12.20
2022-12-15T19:39:54.237Z,13.00
2022-12-15T19:42:38.437Z,12.82
2022-12-15T19:45:17.685Z,12.98
2022-12-15T19:47:48.767Z,13.32
2022-12-15T19:50:25.314Z,13.57
2022-12-15T19:53:02.317Z,12.80
2022-12-15T19:55:37.964Z,13.27
2022-12-15T19:58:25.248Z,11.88
2022-12-15T20:01:06.141Z,12.38
2022-12-15T20:03:37.702Z,12.55
2022-12-15T20:06:15.095Z,12.85
2022-12-15T20:08:45.753Z,13.10
2022-12-15T20:11:21.264Z,12.88
2022-12-15T20:13:51.455Z,11.93
2022-12-15T20:16:22.153Z,11.45
2022-12-15T20:18:57.849Z,12.55
2022-12-15T20:21:32.754Z,13.27
2022-12-15T20:24:10.699Z,13.02
2022-12-15T20:26:41.771Z,12.43
2022-12-15T20:29:24.686Z,12.60
2022-12-15T20:31:54.459Z,13.32
2022-12-15T20:34:27.260Z,11.93
2022-12-15T20:36:58.414Z,11.68
2022-12-15T20:39:30.828Z,13.63
2022-12-15T20:42:00.740Z,12.05
2022-12-15T20:44:34.659Z,11.38
2022-12-15T20:47:07.629Z,11.68
2022-12-15T20:49:38.534Z,12.32
2022-12-15T20:52:07.932Z,11.93
2022-12-15T20:54:39.241Z,12.50
2022-12-15T20:57:12.903Z,11.65
2022-12-15T20:59:42.237Z,10.95
2022-12-15T21:02:25.183Z,11.75
2022-12-15T21:04:55.789Z,11.35
2022-12-15T21:07:25.756Z,11.85
2022-12-15T21:09:54.673Z,11.88
2022-12-15T21:12:29.842Z,12.25
2022-12-15T21:14:59.990Z,12.23
2022-12-15T21:17:28.985Z,11.88
2022-12-15T21:20:00.556Z,11.77
2022-12-15T21:22:29.849Z,12.88
2022-12-15T21:25:00.554Z,12.65
2022-12-15T21:27:33.227Z,11.35
2022-12-15T21:30:02.139Z,11.25
2022-12-15T21:32:31.385Z,12.82
2022-12-15T21:35:01.490Z,11.52
2022-12-15T21:37:31.346Z,11.30
2022-12-15T21:40:00.637Z,12.15
2022-12-15T21:42:29.805Z,10.52
2022-12-15T21:44:58.601Z,11.02
2022-12-15T21:47:50.042Z,10.88
2022-12-15T21:50:21.353Z,10.95
2022-12-15T21:52:52.849Z,9.65
2022-12-15T21:55:27.382Z,9.38
2022-12-15T21:57:57.485Z,10.77
2022-12-15T22:00:27.404Z,11.20
2022-12-15T22:02:56.658Z,12.38
2022-12-15T22:05:29.468Z,11.38
2022-12-15T22:07:59.533Z,10.80
2022-12-15T22:10:28.288Z,11.02
2022-12-15T22:12:59.745Z,11.70
2022-12-15T22:15:30.564Z,11.95
2022-12-15T22:17:59.573Z,11.60
2022-12-15T22:20:29.903Z,11.57
2022-12-15T22:22:58.683Z,10.38
2022-12-15T22:25:27.582Z,11.18
2022-12-15T22:27:56.490Z,11.68
2022-12-15T22:30:27.029Z,11.75
2022-12-15T22:32:55.888Z,12.02
2022-12-15T22:35:27.546Z,11.98
2022-12-15T22:37:58.445Z,11.20
2022-12-15T22:40:27.430Z,11.80
2022-12-15T22:42:59.569Z,11.32
2022-12-15T22:45:29.394Z,10.70
2022-12-15T22:47:58.559Z,10.40
2022-12-15T22:50:31.387Z,10.52
2022-12-15T22:53:03.001Z,11.60
2022-12-15T22:55:31.626Z,10.52
2022-12-15T22:58:03.942Z,11.20
2022-12-15T23:00:35.002Z,10.27
2022-12-15T23:03:03.938Z,10.70
2022-12-15T23:05:33.179Z,10.70
2022-12-15T23:08:06.149Z,11.43
2022-12-15T23:10:53.599Z,10.18
2022-12-15T23:13:23.859Z,10.43
2022-12-15T23:16:10.330Z,10.02
2022-12-15T23:18:39.026Z,10.55
2022-12-15T23:21:10.811Z,10.00
2022-12-15T23:23:43.415Z,10.48
2022-12-15T23:26:12.612Z,10.32
2022-12-15T23:28:42.184Z,11.38
2022-12-15T23:31:13.035Z,10.15
2022-12-15T23:33:42.356Z,10.23
2022-12-15T23:36:12.246Z,10.25
2022-12-15T23:38:43.714Z,9.98
2022-12-15T23:41:16.911Z,9.95
2022-12-15T23:43:48.089Z,8.88
2022-12-15T23:46:18.673Z,10.15
2022-12-15T23:48:47.893Z,9.20
2022-12-15T23:51:18.728Z,9.20
2022-12-15T23:53:49.676Z,10.63
2022-12-15T23:56:24.265Z,10.10
2022-12-15T23:58:57.349Z,10.23
